Time;durP1;ratioP1;P1;durP2;ratioP2;P2;SDS_P1;SDS_P2;PMS_P1;PMS_P2;Temp;Humidity;BMP_temperature;BMP_pressure;BME280_temperature;BME280_humidity;BME280_pressure;Samples;Min_cycle;Max_cycle;Signal;HPM_P1;HPM_P2
2022/03/29 00:02:13;;;;;;;8.77;3.58;;;;;;;8.23;58.87;100245.72;5004550;28;20773;-42
2022/03/29 00:04:40;;;;;;;10.05;3.97;;;;;;;8.19;58.13;100242.25;5005338;28;20104;-47
2022/03/29 00:07:07;;;;;;;7.65;3.67;;;;;;;8.17;59.30;100236.19;5003543;28;20045;-43
2022/03/29 00:09:34;;;;;;;9.32;4.60;;;;;;;8.15;58.58;100237.03;5004669;28;20429;-46
2022/03/29 00:12:00;;;;;;;7.90;3.35;;;;;;;8.09;58.63;100230.09;5007831;28;20054;-42
2022/03/29 00:14:27;;;;;;;9.23;3.50;;;;;;;8.05;58.80;100230.91;5007748;28;20900;-42
2022/03/29 00:16:55;;;;;;;9.52;3.50;;;;;;;8.02;58.67;100220.56;5007850;28;20491;-41
2022/03/29 00:19:22;;;;;;;7.03;3.25;;;;;;;7.98;58.62;100219.69;5007306;28;20081;-44
2022/03/29 00:21:50;;;;;;;10.43;3.45;;;;;;;7.96;60.01;100219.66;5007862;28;20133;-41
2022/03/29 00:24:19;;;;;;;7.40;3.38;;;;;;;7.96;59.29;100216.19;5006678;28;20050;-44
2022/03/29 00:26:47;;;;;;;7.70;3.72;;;;;;;7.95;59.77;100210.19;5007397;28;20045;-44
2022/03/29 00:29:15;;;;;;;8.90;3.88;;;;;;;7.94;58.66;100207.59;5006779;28;20041;-43
2022/03/29 00:32:00;;;;;;;9.57;4.35;;;;;;;7.90;58.86;100201.53;5006412;28;20056;-42
2022/03/29 00:34:29;;;;;;;9.70;3.88;;;;;;;7.88;59.36;100205.81;5006354;28;20133;-42
2022/03/29 00:36:57;;;;;;;10.20;2.97;;;;;;;7.86;59.96;100204.91;5009638;28;20410;-42
2022/03/29 00:39:23;;;;;;;7.68;3.75;;;;;;;7.81;58.75;100201.44;5008642;28;20552;-42
2022/03/29 00:41:50;;;;;;;7.75;3.55;;;;;;;7.79;59.31;100206.56;4995481;28;20101;-42
2022/03/29 00:44:17;;;;;;;7.35;3.35;;;;;;;7.77;60.54;100204.84;4995464;28;20048;-42
2022/03/29 00:46:47;;;;;;;7.78;3.97;;;;;;;7.72;58.94;100203.06;5006104;28;20046;-48
2022/03/29 00:49:13;;;;;;;8.55;3.10;;;;;;;7.69;59.74;100192.72;5003041;28;20089;-46
2022/03/29 00:51:40;;;;;;;6.63;3.25;;;;;;;7.66;59.82;100191.78;5004449;28;20061;-41
2022/03/29 00:54:06;;;;;;;7.90;3.58;;;;;;;7.64;60.59;100189.22;5008198;28;20065;-44
2022/03/29 00:56:33;;;;;;;9.63;3.85;;;;;;;7.61;60.84;100199.50;5002146;28;20046;-42
2022/03/29 00:59:00;;;;;;;7.55;3.40;;;;;;;7.59;59.95;100194.31;5004888;28;20042;-44
2022/03/29 01:01:27;;;;;;;10.10;4.35;;;;;;;7.59;59.82;100185.72;5002271;28;20060;-44
2022/03/29 01:03:54;;;;;;;13.43;4.43;;;;;;;7.61;59.59;100189.19;5004957;28;20107;-44
2022/03/29 01:06:21;;;;;;;8.52;3.95;;;;;;;7.59;60.74;100191.75;5001415;28;20049;-45
2022/03/29 01:08:47;;;;;;;9.63;3.90;;;;;;;7.59;60.83;100185.72;5004523;28;20096;-43
2022/03/29 01:11:15;;;;;;;12.55;5.13;;;;;;;7.58;59.90;100189.16;5004049;28;20050;-47
2022/03/29 01:13:42;;;;;;;9.52;5.68;;;;;;;7.56;59.45;100183.97;5002343;28;20042;-44
2022/03/29 01:18:58;;;;;;;8.43;4.13;;;;;;;7.54;60.93;100174.50;5000510;28;20041;-43
2022/03/29 01:21:31;;;;;;;9.48;4.10;;;;;;;7.50;60.07;100165.84;5004483;28;20104;-42
2022/03/29 01:23:59;;;;;;;9.30;4.05;;;;;;;7.50;59.61;100171.00;5005730;28;20449;-43
2022/03/29 01:26:26;;;;;;;8.55;3.83;;;;;;;7.48;60.34;100167.56;5005008;28;20057;-41
2022/03/29 01:28:54;;;;;;;11.07;3.92;;;;;;;7.49;60.49;100165.84;5000627;28;20100;-47
2022/03/29 01:31:22;;;;;;;8.10;3.75;;;;;;;7.46;61.33;100162.38;5004460;28;20065;-43
2022/03/29 01:33:49;;;;;;;7.55;3.10;;;;;;;7.43;59.83;100152.03;5000326;28;20049;-42
2022/03/29 01:36:16;;;;;;;9.73;3.92;;;;;;;7.43;61.63;100158.91;5000758;28;20120;-40
2022/03/29 01:38:42;;;;;;;9.82;4.85;;;;;;;7.42;60.42;100155.47;5005950;28;20445;-42
2022/03/29 01:41:10;;;;;;;7.72;3.13;;;;;;;7.39;60.36;100150.25;5005738;28;20103;-41
2022/03/29 01:43:37;;;;;;;8.50;3.83;;;;;;;7.37;60.44;100141.66;5005020;28;20057;-45
2022/03/29 01:46:03;;;;;;;8.27;3.88;;;;;;;7.38;61.26;100138.22;5007252;28;20099;-43
2022/03/29 01:48:30;;;;;;;9.40;3.88;;;;;;;7.38;61.54;100143.38;5005375;28;20044;-44
2022/03/29 01:50:57;;;;;;;10.70;4.15;;;;;;;7.32;60.99;100135.56;5003761;28;20050;-43
2022/03/29 01:53:25;;;;;;;8.45;4.15;;;;;;;7.25;62.35;100139.78;5004374;28;20049;-41
2022/03/29 01:55:58;;;;;;;8.77;3.55;;;;;;;7.16;61.65;100135.38;5003562;28;20072;-42
2022/03/29 01:58:25;;;;;;;11.13;4.47;;;;;;;7.10;62.60;100135.31;5005504;28;20041;-41
2022/03/29 02:00:52;;;;;;;8.98;3.80;;;;;;;7.05;62.82;100131.78;5005015;28;20080;-41
2022/03/29 02:03:19;;;;;;;10.55;4.00;;;;;;;7.02;63.07;100127.47;5002087;28;20685;-43
2022/03/29 02:05:49;;;;;;;7.75;3.53;;;;;;;7.03;62.38;100133.50;5003809;28;20049;-41
2022/03/29 02:08:16;;;;;;;7.82;3.60;;;;;;;7.06;62.56;100123.25;5000171;28;20050;-42
2022/03/29 02:10:43;;;;;;;8.30;3.72;;;;;;;7.08;62.37;100126.69;5004518;28;20050;-41
2022/03/29 02:13:10;;;;;;;8.27;4.35;;;;;;;7.10;62.86;100119.88;5003753;28;20449;-41
2022/03/29 02:15:38;;;;;;;10.20;3.95;;;;;;;7.13;62.99;100125.03;5005282;28;20053;-40
2022/03/29 02:18:06;;;;;;;7.78;3.83;;;;;;;7.12;63.50;100123.31;5000454;28;20053;-43
2022/03/29 02:20:32;;;;;;;10.70;4.38;;;;;;;7.12;63.47;100122.47;5002899;28;20050;-41
2022/03/29 02:23:02;;;;;;;9.88;4.15;;;;;;;7.09;63.31;100120.69;5002498;28;20736;-41
2022/03/29 02:25:30;;;;;;;15.73;3.88;;;;;;;7.06;63.83;100123.25;5005586;28;20054;-40
2022/03/29 02:27:56;;;;;;;8.07;3.88;;;;;;;6.97;63.29;100128.25;5001499;28;20042;-43
2022/03/29 02:30:24;;;;;;;11.70;4.45;;;;;;;6.92;63.16;100120.47;5001681;28;20199;-42
2022/03/29 02:32:51;;;;;;;10.07;4.22;;;;;;;6.88;63.83;100127.28;5001893;28;20046;-40
2022/03/29 02:35:17;;;;;;;9.25;3.70;;;;;;;6.89;63.51;100125.59;5000455;28;23909;-41
2022/03/29 02:37:44;;;;;;;10.82;3.90;;;;;;;6.90;63.60;100128.19;5003172;28;20112;-43
2022/03/29 02:40:13;;;;;;;11.18;4.50;;;;;;;6.91;63.51;100124.78;5000585;28;20048;-44
2022/03/29 02:42:45;;;;;;;9.90;3.95;;;;;;;6.92;64.44;100131.63;4998493;28;20073;-48
2022/03/29 02:45:15;;;;;;;10.68;4.57;;;;;;;6.92;63.20;100131.63;5001843;28;20088;-44
2022/03/29 02:47:43;;;;;;;12.85;5.38;;;;;;;6.93;63.37;100123.06;4999661;28;20049;-44
2022/03/29 02:50:12;;;;;;;13.82;4.75;;;;;;;6.93;63.54;100117.91;5002518;28;20573;-43
2022/03/29 02:52:43;;;;;;;13.98;6.50;;;;;;;6.93;65.24;100119.63;5002311;28;20371;-43
2022/03/29 02:55:11;;;;;;;13.23;5.57;;;;;;;6.96;65.16;100121.38;5002257;28;20564;-43
2022/03/29 02:57:38;;;;;;;24.02;6.60;;;;;;;6.94;64.85;100114.50;5003510;28;20127;-45
2022/03/29 03:00:05;;;;;;;24.77;8.68;;;;;;;6.94;64.14;100109.38;5001382;28;20508;-40
2022/03/29 03:02:32;;;;;;;32.58;9.65;;;;;;;6.94;64.53;100109.38;5003953;28;20057;-41
2022/03/29 03:05:00;;;;;;;37.35;9.25;;;;;;;6.92;66.06;100113.63;4994205;28;20058;-42
2022/03/29 03:07:28;;;;;;;43.90;10.30;;;;;;;6.93;64.77;100112.75;4984890;28;20053;-41
2022/03/29 03:09:55;;;;;;;44.17;8.77;;;;;;;6.90;65.21;100119.59;5000039;28;20465;-42
2022/03/29 03:12:22;;;;;;;45.95;9.32;;;;;;;6.88;66.37;100111.84;5000484;28;20050;-45
2022/03/29 03:14:48;;;;;;;71.03;10.77;;;;;;;6.89;65.53;100115.28;5001238;28;20046;-46
2022/03/29 03:17:15;;;;;;;40.28;9.43;;;;;;;6.88;66.00;100106.69;5003273;28;20046;-41
2022/03/29 03:19:41;;;;;;;42.45;8.75;;;;;;;6.90;65.55;100102.44;5031818;28;20042;-43
2022/03/29 03:22:08;;;;;;;39.13;9.75;;;;;;;6.92;65.44;100100.75;4999342;28;20045;-44
2022/03/29 03:24:35;;;;;;;47.72;8.98;;;;;;;6.91;67.12;100103.28;5002336;28;20046;-44
2022/03/29 03:27:02;;;;;;;35.35;8.20;;;;;;;6.91;67.50;100103.28;5002103;28;20054;-43
2022/03/29 03:29:28;;;;;;;55.05;10.70;;;;;;;6.88;66.92;100091.25;5003538;28;20045;-44
2022/03/29 03:31:55;;;;;;;49.78;9.13;;;;;;;6.85;66.77;100083.47;5001173;28;20054;-41
2022/03/29 03:34:22;;;;;;;52.17;9.35;;;;;;;6.85;66.94;100088.63;5002127;28;20652;-45
2022/03/29 03:36:48;;;;;;;61.92;9.70;;;;;;;6.85;66.84;100085.22;5002490;28;20050;-42
2022/03/29 03:39:15;;;;;;;35.00;8.85;;;;;;;6.86;67.31;100085.19;5001297;28;20038;-43
2022/03/29 03:41:41;;;;;;;40.28;10.32;;;;;;;6.86;67.00;100085.19;4995692;28;20050;-43
2022/03/29 03:44:11;;;;;;;49.55;8.63;;;;;;;6.81;69.00;100086.84;4997449;28;20053;-45
2022/03/29 03:46:37;;;;;;;62.42;10.60;;;;;;;6.73;68.56;100080.75;5003407;28;20046;-44
2022/03/29 03:49:04;;;;;;;37.20;9.60;;;;;;;6.72;68.55;100076.44;4998668;28;20069;-42
2022/03/29 03:51:30;;;;;;;50.00;10.45;;;;;;;6.72;68.06;100077.28;5002126;28;20050;-44
2022/03/29 03:53:57;;;;;;;31.10;10.85;;;;;;;6.74;69.05;100074.75;4999932;28;20453;-43
2022/03/29 03:56:24;;;;;;;51.72;9.52;;;;;;;6.76;68.85;100063.63;4999042;28;20533;-45
2022/03/29 03:58:50;;;;;;;43.53;9.30;;;;;;;6.79;68.20;100073.13;5003136;28;20806;-43
2022/03/29 04:01:17;;;;;;;52.60;10.93;;;;;;;6.83;67.53;100059.44;4998968;28;20371;-41
2022/03/29 04:03:44;;;;;;;56.17;10.52;;;;;;;6.83;67.81;100054.28;5002857;28;20045;-43
2022/03/29 04:06:11;;;;;;;38.88;10.38;;;;;;;6.81;67.56;100062.00;4996835;28;20057;-46
2022/03/29 04:08:37;;;;;;;36.42;7.90;;;;;;;6.82;69.43;100057.69;4997975;28;20051;-44
2022/03/29 04:11:06;;;;;;;39.80;7.22;;;;;;;6.78;68.26;100051.66;5000612;28;20540;-45
2022/03/29 04:13:34;;;;;;;40.58;8.75;;;;;;;6.82;69.35;100052.53;4998912;28;20053;-46
2022/03/29 04:16:01;;;;;;;36.58;8.25;;;;;;;6.82;67.75;100049.97;5004323;28;20065;-43
2022/03/29 04:18:29;;;;;;;34.42;8.00;;;;;;;6.82;68.50;100049.97;4999283;28;20049;-42
2022/03/29 04:20:57;;;;;;;40.03;8.68;;;;;;;6.83;68.13;100049.13;5002209;28;20054;-43
2022/03/29 04:23:23;;;;;;;53.38;9.38;;;;;;;6.83;69.23;100049.13;5001701;28;20103;-45
2022/03/29 04:25:50;;;;;;;37.80;9.95;;;;;;;6.82;68.91;100049.97;4997344;28;20399;-47
2022/03/29 04:28:16;;;;;;;25.65;7.22;;;;;;;6.81;68.22;100045.66;5003869;28;20112;-47
2022/03/29 04:30:43;;;;;;;27.67;7.40;;;;;;;6.78;69.90;100037.91;5004707;28;20049;-42
2022/03/29 04:33:10;;;;;;;43.83;7.85;;;;;;;6.79;69.92;100037.06;5003983;28;20058;-43
2022/03/29 04:35:36;;;;;;;48.83;7.32;;;;;;;6.76;69.25;100031.88;4998620;28;20057;-45
2022/03/29 04:38:03;;;;;;;36.38;7.25;;;;;;;6.77;69.23;100028.44;4999237;28;20092;-45
2022/03/29 04:40:29;;;;;;;43.90;8.60;;;;;;;6.79;68.49;100021.63;4999611;28;20421;-44
2022/03/29 04:43:00;;;;;;;32.60;7.40;;;;;;;6.76;69.87;100021.59;5003459;28;20081;-43
2022/03/29 04:45:26;;;;;;;;;;;;;;;6.64;72.03;100014.56;5004442;28;20136;-44
2022/03/29 04:47:53;;;;;;;31.25;6.93;;;;;;;6.71;68.38;100012.91;5001678;28;21537;-46
2022/03/29 04:50:19;;;;;;;24.10;6.70;;;;;;;6.73;69.63;100016.38;5001569;28;20053;-42
2022/03/29 04:52:47;;;;;;;34.30;7.35;;;;;;;6.75;69.16;100007.84;5005827;28;20194;-45
2022/03/29 04:55:15;;;;;;;33.92;6.88;;;;;;;6.76;69.57;100013.84;5004692;28;20137;-43
2022/03/29 04:57:43;;;;;;;26.70;5.93;;;;;;;6.77;68.68;100013.00;5005889;28;20054;-43
2022/03/29 05:00:12;;;;;;;30.58;5.72;;;;;;;6.73;69.53;100008.66;5003755;28;20096;-44
2022/03/29 05:02:41;;;;;;;26.35;6.28;;;;;;;6.73;69.80;100008.66;5002889;28;20054;-43
2022/03/29 05:05:09;;;;;;;19.88;5.32;;;;;;;6.72;69.19;100012.09;5006840;28;20061;-43
2022/03/29 05:07:37;;;;;;;30.40;5.35;;;;;;;6.69;70.41;100021.50;5001005;28;20073;-44
2022/03/29 05:10:04;;;;;;;19.25;4.85;;;;;;;6.68;69.09;100014.63;5006069;28;20474;-43
2022/03/29 05:12:42;;;;;;;24.73;6.07;;;;;;;6.60;71.14;100021.38;5005768;28;20073;-46
2022/03/29 05:15:10;;;;;;;19.90;5.25;;;;;;;6.60;70.25;100021.38;5003002;28;20765;-45
2022/03/29 05:17:37;;;;;;;36.55;5.68;;;;;;;6.56;70.79;100019.63;5001268;28;20082;-45
2022/03/29 05:20:05;;;;;;;23.45;5.43;;;;;;;6.56;69.65;100024.78;5002947;28;20050;-45
2022/03/29 05:22:32;;;;;;;26.05;5.75;;;;;;;6.54;70.51;100021.28;5004364;28;20062;-43
2022/03/29 05:24:59;;;;;;;16.95;5.32;;;;;;;6.51;70.13;100027.28;4997284;28;20062;-45
2022/03/29 05:27:25;;;;;;;25.10;5.95;;;;;;;6.53;69.00;100029.88;5005131;28;20636;-43
2022/03/29 05:29:52;;;;;;;15.00;5.15;;;;;;;6.50;69.73;100024.66;4992443;28;20038;-47
2022/03/29 05:32:18;;;;;;;23.77;5.22;;;;;;;6.47;69.82;100024.63;4996622;28;20046;-44
2022/03/29 05:34:46;;;;;;;28.02;5.35;;;;;;;6.48;69.36;100016.09;5004972;28;20131;-44
2022/03/29 05:37:14;;;;;;;14.68;4.68;;;;;;;6.45;70.15;100010.88;5002812;28;20046;-45
2022/03/29 05:39:43;;;;;;;24.98;5.10;;;;;;;6.41;70.50;100010.84;5001990;28;20057;-43
2022/03/29 05:42:10;;;;;;;19.58;4.75;;;;;;;6.40;71.01;100009.13;5001576;28;20077;-46
2022/03/29 05:44:38;;;;;;;28.58;4.75;;;;;;;6.39;70.28;100007.38;5000480;28;20108;-43
2022/03/29 05:49:52;;;;;;;19.67;4.32;;;;;;;6.38;70.63;100010.78;5003981;28;20054;-48
2022/03/29 05:52:21;;;;;;;14.38;4.78;;;;;;;6.40;70.71;100005.66;5004330;28;20064;-43
2022/03/29 05:54:48;;;;;;;23.98;4.25;;;;;;;6.39;70.27;100017.66;5034523;28;20513;-43
2022/03/29 05:57:16;;;;;;;18.13;4.43;;;;;;;6.37;70.23;100014.22;5000087;28;20041;-47
2022/03/29 05:59:44;;;;;;;10.35;3.67;;;;;;;6.37;69.50;100016.78;5000804;28;20061;-43
2022/03/29 06:02:10;;;;;;;23.38;4.55;;;;;;;6.35;70.41;100015.88;5003299;28;20042;-47
2022/03/29 06:04:39;;;;;;;27.75;4.28;;;;;;;6.32;71.19;100015.00;5001481;28;20049;-44
2022/03/29 06:07:07;;;;;;;20.88;4.20;;;;;;;6.32;69.94;100009.84;5004952;28;20128;-43
2022/03/29 06:09:35;;;;;;;20.70;4.97;;;;;;;6.31;70.89;100014.13;5005299;28;20773;-43
2022/03/29 06:12:03;;;;;;;18.13;4.35;;;;;;;6.30;69.94;100004.69;5002772;28;20797;-46
2022/03/29 06:14:29;;;;;;;27.02;5.03;;;;;;;6.30;71.13;100007.25;5000830;28;20062;-43
2022/03/29 06:16:56;;;;;;;17.02;5.28;;;;;;;6.33;69.52;100007.31;5001782;28;20046;-45
2022/03/29 06:19:22;;;;;;;20.88;4.78;;;;;;;6.35;69.89;100004.75;5002754;28;20053;-46
2022/03/29 06:21:49;;;;;;;24.00;5.10;;;;;;;6.36;69.56;100007.34;5004869;28;20076;-43
2022/03/29 06:24:16;;;;;;;11.82;4.22;;;;;;;6.39;69.56;99997.06;4997756;28;20685;-43
2022/03/29 06:26:43;;;;;;;20.33;4.40;;;;;;;6.41;70.57;99997.97;5000557;28;20054;-44
2022/03/29 06:29:11;;;;;;;11.90;5.03;;;;;;;6.43;69.83;100004.00;5001289;28;20112;-42
2022/03/29 06:31:39;;;;;;;30.33;5.78;;;;;;;6.45;70.37;100005.75;5006827;28;20550;-44
2022/03/29 06:34:06;;;;;;;35.92;4.60;;;;;;;6.45;69.67;100003.16;5005992;28;20068;-45
2022/03/29 06:36:32;;;;;;;26.55;4.45;;;;;;;6.43;69.56;100004.00;5000109;28;20651;-43
2022/03/29 06:39:03;;;;;;;25.88;3.88;;;;;;;6.42;69.92;100001.44;5000472;28;20568;-43
2022/03/29 06:41:30;;;;;;;20.67;5.50;;;;;;;6.39;70.97;99991.94;5003023;28;20061;-44
2022/03/29 06:43:57;;;;;;;18.85;4.30;;;;;;;6.41;71.20;99997.97;5006455;28;20112;-43
2022/03/29 06:46:24;;;;;;;13.13;4.50;;;;;;;6.45;70.39;99991.16;4998548;28;20072;-44
2022/03/29 06:48:51;;;;;;;21.05;4.20;;;;;;;6.47;69.87;99999.78;5002240;28;20060;-43
2022/03/29 06:51:18;;;;;;;32.03;4.45;;;;;;;6.52;70.64;99999.84;4998103;28;20049;-46
2022/03/29 06:53:45;;;;;;;19.42;4.18;;;;;;;6.54;69.91;100000.72;5030453;28;20041;-45
2022/03/29 06:56:11;;;;;;;22.13;4.55;;;;;;;6.52;70.91;100005.00;5000722;28;20054;-43
2022/03/29 06:58:38;;;;;;;19.00;4.57;;;;;;;6.50;70.66;100004.09;5004129;28;20052;-41
2022/03/29 07:01:05;;;;;;;21.15;3.63;;;;;;;6.48;70.68;100005.78;4997474;28;20052;-42
2022/03/29 07:03:34;;;;;;;42.35;5.30;;;;;;;6.52;70.72;100012.72;4996582;28;20053;-42
2022/03/29 07:06:03;;;;;;;17.30;4.50;;;;;;;6.50;71.33;100009.22;4993347;28;20054;-46
2022/03/29 07:08:31;;;;;;;15.50;4.57;;;;;;;6.48;70.42;100004.06;4999527;28;20048;-44
2022/03/29 07:13:45;;;;;;;20.05;3.70;;;;;;;6.47;70.73;100006.63;4996585;28;20050;-43
2022/03/29 07:16:14;;;;;;;17.65;5.75;;;;;;;6.51;70.38;100010.94;5000629;28;20053;-43
2022/03/29 07:18:46;;;;;;;22.40;5.43;;;;;;;6.52;70.76;99997.25;4996294;28;20129;-43
2022/03/29 07:21:12;;;;;;;34.63;5.82;;;;;;;6.53;69.92;99996.41;4996086;28;20041;-42
2022/03/29 07:23:40;;;;;;;26.13;9.00;;;;;;;6.53;70.24;100001.56;4998480;28;20054;-45
2022/03/29 07:26:06;;;;;;;21.13;7.45;;;;;;;6.56;71.38;100007.59;5001964;28;20052;-45
2022/03/29 07:28:33;;;;;;;22.30;4.93;;;;;;;6.61;69.86;100004.22;4999432;28;20077;-43
2022/03/29 07:31:00;;;;;;;23.65;4.63;;;;;;;6.57;70.65;100011.03;4995314;28;20088;-45
2022/03/29 07:33:26;;;;;;;17.05;4.53;;;;;;;6.55;70.49;100000.72;4998470;28;20453;-45
2022/03/29 07:35:54;;;;;;;18.65;4.03;;;;;;;6.49;71.90;99997.22;5001581;28;20045;-42
2022/03/29 07:38:21;;;;;;;13.73;4.70;;;;;;;6.47;71.63;99998.91;5001913;28;20171;-43
2022/03/29 07:40:48;;;;;;;20.08;5.10;;;;;;;6.48;70.52;99996.34;4995627;28;20054;-46
2022/03/29 07:43:14;;;;;;;9.27;3.60;;;;;;;6.54;70.96;100000.72;4996718;28;20062;-46
2022/03/29 07:45:46;;;;;;;15.98;4.57;;;;;;;6.54;71.03;99996.44;5000832;28;20627;-43
2022/03/29 07:48:13;;;;;;;20.10;4.03;;;;;;;6.56;70.37;99993.88;5002026;28;20528;-42
2022/03/29 07:51:00;;;;;;;26.50;5.03;;;;;;;6.58;70.31;99993.91;5001938;28;20103;-44
2022/03/29 07:53:27;;;;;;;15.60;4.78;;;;;;;6.60;71.01;100000.81;4986900;28;20054;-45
2022/03/29 07:55:54;;;;;;;16.45;4.68;;;;;;;6.60;69.82;100005.94;4983714;28;20162;-46
2022/03/29 07:58:20;;;;;;;32.50;4.53;;;;;;;6.61;70.26;100007.66;4995373;28;20054;-52
2022/03/29 08:00:53;;;;;;;9.57;3.58;;;;;;;6.60;70.28;100000.81;4999959;28;20076;-46
2022/03/29 08:03:21;;;;;;;18.83;3.95;;;;;;;6.57;71.59;100008.47;4997542;28;20048;-45
2022/03/29 08:05:50;;;;;;;23.95;3.20;;;;;;;6.56;71.76;99996.47;4998417;28;20050;-43
2022/03/29 08:08:17;;;;;;;12.95;3.53;;;;;;;6.51;71.47;100001.53;4995761;28;20100;-43
2022/03/29 08:10:46;;;;;;;19.75;3.92;;;;;;;6.48;72.01;99995.50;4994495;28;20124;-45
2022/03/29 08:13:14;;;;;;;15.40;4.00;;;;;;;6.44;72.42;99994.56;4995997;28;20049;-44
2022/03/29 08:15:44;;;;;;;28.02;3.65;;;;;;;6.49;71.33;99998.06;5000987;28;20129;-46
2022/03/29 08:18:10;;;;;;;19.80;3.58;;;;;;;6.50;71.92;99998.94;5003807;28;20046;-44
2022/03/29 08:20:38;;;;;;;18.45;3.13;;;;;;;6.50;71.51;99988.66;5006228;28;20046;-44
2022/03/29 08:23:07;;;;;;;44.28;3.85;;;;;;;6.52;71.06;99989.53;5002187;28;20054;-44
2022/03/29 08:25:36;;;;;;;18.85;3.08;;;;;;;6.57;70.65;99995.59;5001856;28;20506;-43
2022/03/29 08:28:03;;;;;;;14.85;3.67;;;;;;;6.59;70.59;99993.06;5002404;28;20053;-45
2022/03/29 08:30:32;;;;;;;15.10;2.63;;;;;;;6.60;70.69;99994.78;5002363;28;20050;-48
2022/03/29 08:32:59;;;;;;;29.45;3.58;;;;;;;6.64;71.79;99986.25;5008622;28;20471;-46
2022/03/29 08:35:29;;;;;;;13.65;3.60;;;;;;;6.61;72.19;99984.50;5006279;28;20058;-45
2022/03/29 08:37:57;;;;;;;8.27;3.08;;;;;;;6.62;71.05;99993.94;5036245;28;20050;-46
2022/03/29 08:40:45;;;;;;;19.10;3.65;;;;;;;6.64;71.60;99996.53;5007196;28;20074;-45
2022/03/29 08:43:14;;;;;;;15.82;3.63;;;;;;;6.62;71.32;99996.53;5007189;28;20488;-48
2022/03/29 08:45:47;;;;;;;12.43;3.10;;;;;;;6.65;72.05;99988.84;5040687;28;21181;-42
2022/03/29 08:48:14;;;;;;;11.68;3.50;;;;;;;6.69;70.70;99989.75;5008626;28;20101;-44
2022/03/29 08:50:42;;;;;;;14.23;3.22;;;;;;;6.73;70.83;99985.50;5007485;28;20676;-43
2022/03/29 08:53:10;;;;;;;20.15;3.08;;;;;;;6.75;70.88;99983.81;5008516;28;20049;-45
2022/03/29 08:55:41;;;;;;;11.98;2.47;;;;;;;6.74;70.85;99976.94;5008728;28;20116;-44
2022/03/29 08:58:07;;;;;;;18.27;3.20;;;;;;;6.73;72.65;99975.22;5008166;28;20046;-43
2022/03/29 09:00:35;;;;;;;9.75;2.97;;;;;;;6.75;72.32;99986.41;5007135;28;20108;-44
2022/03/29 09:03:02;;;;;;;13.45;3.55;;;;;;;6.78;71.36;99979.56;5006972;28;20489;-42
2022/03/29 09:05:30;;;;;;;14.77;3.28;;;;;;;6.85;71.71;99982.22;5006701;28;20042;-45
2022/03/29 09:07:59;;;;;;;11.80;4.20;;;;;;;6.88;71.01;99980.53;5012405;28;20627;-43
2022/03/29 09:10:48;;;;;;;9.93;2.83;;;;;;;6.87;71.51;99983.97;5007717;28;20104;-44
2022/03/29 09:13:22;;;;;;;13.65;3.60;;;;;;;6.91;71.46;99980.56;5008299;28;20046;-45
2022/03/29 09:15:51;;;;;;;13.50;4.03;;;;;;;6.88;71.59;99975.38;5003453;28;20042;-45
2022/03/29 09:18:18;;;;;;;10.20;2.80;;;;;;;6.86;71.64;99977.06;5008134;28;20058;-46
2022/03/29 09:20:46;;;;;;;27.08;3.45;;;;;;;6.86;71.12;99976.22;5001563;28;20088;-43
2022/03/29 09:23:17;;;;;;;14.07;3.42;;;;;;;6.90;72.44;99973.69;5008514;28;20049;-43
2022/03/29 09:25:47;;;;;;;11.80;4.60;;;;;;;6.92;72.19;99966.84;5010689;28;20627;-43
2022/03/29 09:28:17;;;;;;;21.50;5.05;;;;;;;6.97;71.72;99973.75;5007356;28;20425;-42
2022/03/29 09:30:50;;;;;;;9.95;3.15;;;;;;;7.01;71.06;99975.50;5023081;28;20041;-46
2022/03/29 09:33:20;;;;;;;20.65;3.92;;;;;;;6.97;71.22;99977.19;5007293;28;20061;-43
2022/03/29 09:38:34;;;;;;;11.15;4.68;;;;;;;7.02;71.96;99966.94;5019277;28;20410;-43
2022/03/29 09:41:02;;;;;;;17.95;4.38;;;;;;;7.03;72.04;99969.53;4984500;28;20502;-43
2022/03/29 09:43:29;;;;;;;9.70;4.45;;;;;;;7.03;71.50;99978.97;4983058;28;20081;-41
2022/03/29 09:45:59;;;;;;;12.68;3.88;;;;;;;6.98;72.60;99965.16;4985543;28;20050;-42
2022/03/29 09:48:29;;;;;;;9.95;3.78;;;;;;;6.92;72.28;99959.13;4982201;28;20101;-44
2022/03/29 09:51:14;;;;;;;8.93;4.18;;;;;;;6.96;72.81;99966.88;4983663;28;20523;-43
2022/03/29 09:53:52;;;;;;;15.43;3.95;;;;;;;6.94;72.73;99974.59;4983200;28;20039;-42
2022/03/29 09:56:24;;;;;;;9.02;3.03;;;;;;;6.93;73.15;99971.13;4997558;28;20406;-42
2022/03/29 09:59:14;;;;;;;11.52;4.43;;;;;;;6.98;72.55;99976.34;4981742;28;20050;-46
2022/03/29 10:01:49;;;;;;;9.65;4.65;;;;;;;7.03;71.07;99972.09;4975857;28;20511;-45
2022/03/29 10:04:17;;;;;;;7.70;3.60;;;;;;;7.09;71.09;99973.88;4981371;28;20102;-41
2022/03/29 10:06:47;;;;;;;8.68;3.15;;;;;;;7.14;70.63;99971.34;4996832;28;20042;-42
2022/03/29 10:09:27;;;;;;;9.02;3.10;;;;;;;7.16;71.88;99975.66;4972657;28;20870;-44
2022/03/29 10:11:57;;;;;;;7.05;3.65;;;;;;;7.23;71.14;99965.44;4971057;28;20054;-43
2022/03/29 10:14:27;;;;;;;9.98;3.67;;;;;;;7.30;70.56;99974.97;4987899;28;20043;-42
2022/03/29 10:16:54;;;;;;;10.80;3.78;;;;;;;7.35;70.64;99983.59;4974915;28;20051;-42
2022/03/29 10:19:22;;;;;;;6.88;3.50;;;;;;;7.29;71.48;99986.09;4974566;28;20160;-43
2022/03/29 10:21:50;;;;;;;9.68;3.22;;;;;;;7.25;71.88;99976.59;4976662;28;20050;-48
2022/03/29 10:24:18;;;;;;;7.95;2.55;;;;;;;7.17;71.71;99977.38;4992567;28;20514;-45
2022/03/29 10:27:03;;;;;;;7.63;3.40;;;;;;;7.14;71.39;99972.22;4976874;28;20058;-44
2022/03/29 10:29:30;;;;;;;9.82;2.85;;;;;;;7.14;72.15;99966.19;4989362;28;20051;-41
2022/03/29 10:32:01;;;;;;;7.82;3.72;;;;;;;7.15;71.37;99968.81;4980337;28;20062;-42
2022/03/29 10:39:47;;;;;;;5.18;1.73;;;;;;;7.10;72.26;99965.31;5061461;27;20407;-42
2022/03/29 10:47:37;;;;;;;5.18;1.83;;;;;;;7.38;71.20;99965.59;5030903;28;20761;-44
2022/03/29 10:50:06;;;;;;;5.00;1.85;;;;;;;7.49;70.56;99962.25;5003407;28;20093;-41
2022/03/29 10:52:50;;;;;;;9.05;2.25;;;;;;;7.58;70.06;99962.31;5005548;28;20668;-40
2022/03/29 10:55:20;;;;;;;5.85;2.00;;;;;;;7.59;71.48;99958.88;5011197;28;20072;-44
2022/03/29 10:58:08;;;;;;;5.43;1.88;;;;;;;7.59;71.32;99954.59;5005963;28;20069;-41
2022/03/29 11:00:39;;;;;;;5.47;2.20;;;;;;;7.64;71.25;99952.06;5004880;28;20054;-41
2022/03/29 11:06:17;;;;;;;5.25;1.60;;;;;;;7.69;70.41;99949.50;5005691;28;20407;-45
2022/03/29 11:08:48;;;;;;;6.55;2.33;;;;;;;7.76;70.63;99950.41;4989230;28;20050;-43
2022/03/29 11:11:43;;;;;;;6.15;2.42;;;;;;;7.76;69.97;99940.97;4992586;28;20054;-42
2022/03/29 11:19:46;;;;;;;5.82;1.67;;;;;;;7.74;69.43;99929.78;5045872;28;20407;-44
2022/03/29 11:25:13;;;;;;;7.50;2.35;;;;;;;7.76;70.75;99929.78;5040774;28;20761;-44
2022/03/29 11:27:41;;;;;;;7.82;3.08;;;;;;;7.81;69.42;99933.25;5020336;28;20049;-45
2022/03/29 11:30:10;;;;;;;6.50;2.65;;;;;;;7.81;69.13;99933.25;5018876;28;20100;-42
2022/03/29 11:32:40;;;;;;;5.97;3.17;;;;;;;7.81;69.30;99928.94;5019599;28;20046;-42
2022/03/29 11:35:09;;;;;;;6.00;2.80;;;;;;;7.79;69.14;99919.47;5012159;28;20047;-43
2022/03/29 11:37:41;;;;;;;7.95;3.35;;;;;;;7.74;69.42;99922.06;5019525;28;20058;-44
2022/03/29 11:40:17;;;;;;;7.10;3.42;;;;;;;7.78;69.56;99920.34;5019326;28;20429;-46
2022/03/29 11:45:27;;;;;;;12.98;4.80;;;;;;;8.17;69.12;99915.44;5022889;28;20979;-41
2022/03/29 11:50:35;;;;;;;14.90;4.00;;;;;;;7.92;68.64;99911.00;5047228;27;20428;-45
2022/03/29 11:53:15;;;;;;;16.10;6.07;;;;;;;7.90;69.56;99917.84;5030677;28;20421;-43
2022/03/29 11:55:42;;;;;;;12.13;3.13;;;;;;;7.91;68.70;99922.13;5034793;28;20053;-48
2022/03/29 12:03:43;;;;;;;16.17;6.35;;;;;;;7.67;69.24;99909.97;5000273;27;20439;-45
2022/03/29 12:11:33;;;;;;;20.35;7.40;;;;;;;7.98;67.96;99913.59;5030774;28;20414;-45
2022/03/29 12:16:39;;;;;;;17.40;5.80;;;;;;;7.77;68.35;99908.31;5071187;27;20396;-44
2022/03/29 12:19:15;;;;;;;17.20;6.38;;;;;;;7.77;68.61;99905.75;5024385;28;20073;-43
2022/03/29 12:21:46;;;;;;;16.90;6.10;;;;;;;7.76;69.39;99910.03;5063254;28;20056;-42
2022/03/29 12:24:13;;;;;;;17.88;7.38;;;;;;;7.77;68.55;99898.00;5045037;28;20056;-42
2022/03/29 12:26:45;;;;;;;20.90;7.95;;;;;;;7.71;69.02;99902.25;5060447;28;20054;-43
2022/03/29 12:29:19;;;;;;;21.08;7.72;;;;;;;7.68;68.03;99897.09;5056492;28;20099;-43
2022/03/29 12:31:48;;;;;;;15.27;5.90;;;;;;;7.62;68.69;99886.72;5045577;28;20041;-42